sensor_id;sensor_type;location;lat;lon;timestamp;temperature;humidity
13091;DHT22;6611;52.604;13.438;2023-03-13T00:04:50;6.41;89.65
13091;DHT22;6611;52.604;13.438;2023-03-13T00:09:52;6.45;89.68
13091;DHT22;6611;52.604;13.438;2023-03-13T00:14:53;6.53;89.47
13091;DHT22;6611;52.604;13.438;2023-03-13T00:19:56;6.53;89.57
13091;DHT22;6611;52.604;13.438;2023-03-13T00:24:58;6.58;89.49
13091;DHT22;6611;52.604;13.438;2023-03-13T00:29:59;6.65;89.49
13091;DHT22;6611;52.604;13.438;2023-03-13T00:35:03;6.74;89.46
13091;DHT22;6611;52.604;13.438;2023-03-13T00:40:06;6.79;89.42
13091;DHT22;6611;52.604;13.438;2023-03-13T00:45:09;6.84;89.58
13091;DHT22;6611;52.604;13.438;2023-03-13T00:50:12;6.91;89.31
13091;DHT22;6611;52.604;13.438;2023-03-13T00:55:14;6.96;89.24
13091;DHT22;6611;52.604;13.438;2023-03-13T01:00:16;7.03;89.20
13091;DHT22;6611;52.604;13.438;2023-03-13T01:05:19;7.06;89.10
13091;DHT22;6611;52.604;13.438;2023-03-13T01:10:21;7.03;89.29
13091;DHT22;6611;52.604;13.438;2023-03-13T01:15:23;6.99;89.41
13091;DHT22;6611;52.604;13.438;2023-03-13T01:20:28;7.06;89.32
13091;DHT22;6611;52.604;13.438;2023-03-13T01:25:29;7.10;89.02
13091;DHT22;6611;52.604;13.438;2023-03-13T01:30:33;7.15;88.76
13091;DHT22;6611;52.604;13.438;2023-03-13T01:35:36;7.07;89.02
13091;DHT22;6611;52.604;13.438;2023-03-13T01:40:39;7.16;88.43
13091;DHT22;6611;52.604;13.438;2023-03-13T01:45:57;7.15;88.45
13091;DHT22;6611;52.604;13.438;2023-03-13T01:51:03;7.09;88.57
13091;DHT22;6611;52.604;13.438;2023-03-13T01:56:09;7.03;88.60
13091;DHT22;6611;52.604;13.438;2023-03-13T02:01:13;7.12;88.45
13091;DHT22;6611;52.604;13.438;2023-03-13T02:06:17;7.09;88.54
13091;DHT22;6611;52.604;13.438;2023-03-13T02:11:24;7.12;88.25
13091;DHT22;6611;52.604;13.438;2023-03-13T02:16:28;7.02;88.62
13091;DHT22;6611;52.604;13.438;2023-03-13T02:21:39;7.17;87.98
13091;DHT22;6611;52.604;13.438;2023-03-13T02:26:44;7.12;88.02
13091;DHT22;6611;52.604;13.438;2023-03-13T02:31:46;7.07;88.03
13091;DHT22;6611;52.604;13.438;2023-03-13T02:36:49;7.17;87.65
13091;DHT22;6611;52.604;13.438;2023-03-13T02:41:53;7.10;87.68
13091;DHT22;6611;52.604;13.438;2023-03-13T02:46:55;7.09;87.82
13091;DHT22;6611;52.604;13.438;2023-03-13T02:51:59;7.17;87.67
13091;DHT22;6611;52.604;13.438;2023-03-13T02:57:06;7.26;87.29
13091;DHT22;6611;52.604;13.438;2023-03-13T03:02:07;7.23;87.64
13091;DHT22;6611;52.604;13.438;2023-03-13T03:07:09;7.28;87.43
13091;DHT22;6611;52.604;13.438;2023-03-13T03:12:12;7.37;87.36
13091;DHT22;6611;52.604;13.438;2023-03-13T03:17:14;7.43;86.95
13091;DHT22;6611;52.604;13.438;2023-03-13T03:22:15;7.37;87.31
13091;DHT22;6611;52.604;13.438;2023-03-13T03:27:18;7.46;87.13
13091;DHT22;6611;52.604;13.438;2023-03-13T03:32:20;7.46;87.06
13091;DHT22;6611;52.604;13.438;2023-03-13T03:37:22;7.47;87.08
13091;DHT22;6611;52.604;13.438;2023-03-13T03:42:25;7.59;86.57
13091;DHT22;6611;52.604;13.438;2023-03-13T03:47:26;7.65;86.69
13091;DHT22;6611;52.604;13.438;2023-03-13T03:52:28;7.58;87.27
13091;DHT22;6611;52.604;13.438;2023-03-13T03:57:31;7.64;87.22
13091;DHT22;6611;52.604;13.438;2023-03-13T04:02:33;7.65;87.34
13091;DHT22;6611;52.604;13.438;2023-03-13T04:07:34;7.59;87.79
13091;DHT22;6611;52.604;13.438;2023-03-13T04:12:38;7.58;87.85
13091;DHT22;6611;52.604;13.438;2023-03-13T04:17:39;7.64;87.59
13091;DHT22;6611;52.604;13.438;2023-03-13T04:22:41;7.62;87.82
13091;DHT22;6611;52.604;13.438;2023-03-13T04:27:44;7.67;87.77
13091;DHT22;6611;52.604;13.438;2023-03-13T04:32:46;7.54;88.51
13091;DHT22;6611;52.604;13.438;2023-03-13T04:37:47;7.58;88.48
13091;DHT22;6611;52.604;13.438;2023-03-13T04:42:50;7.58;88.35
13091;DHT22;6611;52.604;13.438;2023-03-13T04:47:52;7.68;88.01
13091;DHT22;6611;52.604;13.438;2023-03-13T04:52:54;7.58;88.58
13091;DHT22;6611;52.604;13.438;2023-03-13T04:57:57;7.55;88.87
13091;DHT22;6611;52.604;13.438;2023-03-13T05:02:58;7.52;88.93
13091;DHT22;6611;52.604;13.438;2023-03-13T05:08:00;7.64;88.65
13091;DHT22;6611;52.604;13.438;2023-03-13T05:13:03;7.58;88.85
13091;DHT22;6611;52.604;13.438;2023-03-13T05:18:05;7.62;88.49
13091;DHT22;6611;52.604;13.438;2023-03-13T05:23:06;7.65;88.53
13091;DHT22;6611;52.604;13.438;2023-03-13T05:28:09;7.69;88.42
13091;DHT22;6611;52.604;13.438;2023-03-13T05:33:11;7.62;89.08
13091;DHT22;6611;52.604;13.438;2023-03-13T05:38:13;7.74;88.63
13091;DHT22;6611;52.604;13.438;2023-03-13T05:43:16;7.79;88.47
13091;DHT22;6611;52.604;13.438;2023-03-13T05:48:17;7.87;88.65
13091;DHT22;6611;52.604;13.438;2023-03-13T05:53:19;7.89;88.90
13091;DHT22;6611;52.604;13.438;2023-03-13T05:58:22;7.86;89.39
13091;DHT22;6611;52.604;13.438;2023-03-13T06:03:23;7.79;89.84
13091;DHT22;6611;52.604;13.438;2023-03-13T06:08:25;7.85;89.75
13091;DHT22;6611;52.604;13.438;2023-03-13T06:13:28;7.85;89.73
13091;DHT22;6611;52.604;13.438;2023-03-13T06:18:30;7.82;90.03
13091;DHT22;6611;52.604;13.438;2023-03-13T06:23:32;7.86;90.11
13091;DHT22;6611;52.604;13.438;2023-03-13T06:28:35;7.79;90.45
13091;DHT22;6611;52.604;13.438;2023-03-13T06:33:37;7.86;90.42
13091;DHT22;6611;52.604;13.438;2023-03-13T06:38:39;7.78;90.84
13091;DHT22;6611;52.604;13.438;2023-03-13T06:43:42;7.76;91.04
13091;DHT22;6611;52.604;13.438;2023-03-13T06:48:44;7.81;90.74
13091;DHT22;6611;52.604;13.438;2023-03-13T06:53:46;7.83;90.95
13091;DHT22;6611;52.604;13.438;2023-03-13T06:58:49;7.95;90.50
13091;DHT22;6611;52.604;13.438;2023-03-13T07:03:50;7.96;90.65
13091;DHT22;6611;52.604;13.438;2023-03-13T07:08:52;7.95;90.74
13091;DHT22;6611;52.604;13.438;2023-03-13T07:13:55;8.03;90.76
13091;DHT22;6611;52.604;13.438;2023-03-13T07:19:00;8.00;90.84
13091;DHT22;6611;52.604;13.438;2023-03-13T07:24:03;8.03;90.83
13091;DHT22;6611;52.604;13.438;2023-03-13T07:29:06;8.02;91.08
13091;DHT22;6611;52.604;13.438;2023-03-13T07:34:07;8.07;90.86
13091;DHT22;6611;52.604;13.438;2023-03-13T07:39:09;8.13;91.08
13091;DHT22;6611;52.604;13.438;2023-03-13T07:44:12;8.20;91.17
13091;DHT22;6611;52.604;13.438;2023-03-13T07:49:14;8.31;90.63
13091;DHT22;6611;52.604;13.438;2023-03-13T07:54:15;8.40;91.27
13091;DHT22;6611;52.604;13.438;2023-03-13T07:59:18;8.47;90.83
13091;DHT22;6611;52.604;13.438;2023-03-13T08:04:20;8.52;90.77
13091;DHT22;6611;52.604;13.438;2023-03-13T08:09:22;8.57;91.09
13091;DHT22;6611;52.604;13.438;2023-03-13T08:14:25;8.51;91.40
13091;DHT22;6611;52.604;13.438;2023-03-13T08:19:28;8.61;91.32
13091;DHT22;6611;52.604;13.438;2023-03-13T08:24:30;8.65;91.58
13091;DHT22;6611;52.604;13.438;2023-03-13T08:29:33;8.66;91.90
13091;DHT22;6611;52.604;13.438;2023-03-13T08:34:34;8.75;91.94
13091;DHT22;6611;52.604;13.438;2023-03-13T08:39:36;8.83;91.97
13091;DHT22;6611;52.604;13.438;2023-03-13T08:44:39;9.03;91.23
13091;DHT22;6611;52.604;13.438;2023-03-13T08:49:41;9.09;91.00
13091;DHT22;6611;52.604;13.438;2023-03-13T08:54:43;9.00;91.58
13091;DHT22;6611;52.604;13.438;2023-03-13T08:59:46;9.17;90.84
13091;DHT22;6611;52.604;13.438;2023-03-13T09:04:48;9.13;91.25
13091;DHT22;6611;52.604;13.438;2023-03-13T09:09:50;9.14;91.47
13091;DHT22;6611;52.604;13.438;2023-03-13T09:14:53;9.28;91.12
13091;DHT22;6611;52.604;13.438;2023-03-13T09:19:55;9.42;90.45
13091;DHT22;6611;52.604;13.438;2023-03-13T09:24:56;9.54;89.74
13091;DHT22;6611;52.604;13.438;2023-03-13T09:29:59;9.49;90.22
13091;DHT22;6611;52.604;13.438;2023-03-13T09:35:02;9.66;89.95
13091;DHT22;6611;52.604;13.438;2023-03-13T09:40:06;9.69;90.01
13091;DHT22;6611;52.604;13.438;2023-03-13T09:45:14;9.69;89.85
13091;DHT22;6611;52.604;13.438;2023-03-13T09:50:18;9.83;89.29
13091;DHT22;6611;52.604;13.438;2023-03-13T09:55:23;9.86;89.92
13091;DHT22;6611;52.604;13.438;2023-03-13T10:00:30;9.93;90.07
13091;DHT22;6611;52.604;13.438;2023-03-13T10:05:35;9.85;90.47
13091;DHT22;6611;52.604;13.438;2023-03-13T10:10:42;9.86;90.68
13091;DHT22;6611;52.604;13.438;2023-03-13T10:15:49;10.04;90.19
13091;DHT22;6611;52.604;13.438;2023-03-13T10:20:52;10.27;89.39
13091;DHT22;6611;52.604;13.438;2023-03-13T10:25:57;10.38;89.30
13091;DHT22;6611;52.604;13.438;2023-03-13T10:31:04;10.51;88.80
13091;DHT22;6611;52.604;13.438;2023-03-13T10:36:10;10.60;89.36
13091;DHT22;6611;52.604;13.438;2023-03-13T10:41:24;10.65;88.61
13091;DHT22;6611;52.604;13.438;2023-03-13T10:46:30;10.92;88.02
13091;DHT22;6611;52.604;13.438;2023-03-13T10:51:36;11.13;88.40
13091;DHT22;6611;52.604;13.438;2023-03-13T10:56:38;11.31;86.99
13091;DHT22;6611;52.604;13.438;2023-03-13T11:01:41;11.65;85.92
13091;DHT22;6611;52.604;13.438;2023-03-13T11:06:50;11.82;86.38
13091;DHT22;6611;52.604;13.438;2023-03-13T11:11:54;12.17;84.91
13091;DHT22;6611;52.604;13.438;2023-03-13T11:17:00;12.62;83.97
13091;DHT22;6611;52.604;13.438;2023-03-13T11:22:14;12.60;83.51
13091;DHT22;6611;52.604;13.438;2023-03-13T11:27:26;12.55;84.62
13091;DHT22;6611;52.604;13.438;2023-03-13T11:32:39;12.62;83.32
13091;DHT22;6611;52.604;13.438;2023-03-13T11:37:42;12.53;83.21
13091;DHT22;6611;52.604;13.438;2023-03-13T11:43:01;12.59;83.50
13091;DHT22;6611;52.604;13.438;2023-03-13T11:48:10;12.70;83.00
13091;DHT22;6611;52.604;13.438;2023-03-13T11:53:37;12.69;83.97
13091;DHT22;6611;52.604;13.438;2023-03-13T11:58:54;12.81;83.23
13091;DHT22;6611;52.604;13.438;2023-03-13T12:04:05;12.97;82.80
13091;DHT22;6611;52.604;13.438;2023-03-13T12:09:11;13.10;82.63
13091;DHT22;6611;52.604;13.438;2023-03-13T12:14:17;13.42;81.50
13091;DHT22;6611;52.604;13.438;2023-03-13T12:19:27;13.65;80.44
13091;DHT22;6611;52.604;13.438;2023-03-13T12:24:34;13.77;80.09
13091;DHT22;6611;52.604;13.438;2023-03-13T12:29:43;13.69;81.12
13091;DHT22;6611;52.604;13.438;2023-03-13T12:34:54;13.65;81.25
13091;DHT22;6611;52.604;13.438;2023-03-13T12:40:00;13.80;80.04
13091;DHT22;6611;52.604;13.438;2023-03-13T12:45:09;13.98;79.44
13091;DHT22;6611;52.604;13.438;2023-03-13T12:50:36;14.08;80.37
13091;DHT22;6611;52.604;13.438;2023-03-13T13:01:12;15.15;74.83
13091;DHT22;6611;52.604;13.438;2023-03-13T13:06:17;15.77;74.10
13091;DHT22;6611;52.604;13.438;2023-03-13T13:11:44;15.70;72.99
13091;DHT22;6611;52.604;13.438;2023-03-13T13:16:48;15.61;73.32
13091;DHT22;6611;52.604;13.438;2023-03-13T13:27:50;16.09;71.27
13091;DHT22;6611;52.604;13.438;2023-03-13T13:32:53;16.36;72.14
13091;DHT22;6611;52.604;13.438;2023-03-13T13:43:37;16.06;70.84
13091;DHT22;6611;52.604;13.438;2023-03-13T13:48:40;16.30;70.94
13091;DHT22;6611;52.604;13.438;2023-03-13T13:53:44;16.33;70.29
13091;DHT22;6611;52.604;13.438;2023-03-13T13:58:48;16.12;70.71
13091;DHT22;6611;52.604;13.438;2023-03-13T14:03:53;16.08;70.03
13091;DHT22;6611;52.604;13.438;2023-03-13T14:09:09;16.25;69.18
13091;DHT22;6611;52.604;13.438;2023-03-13T14:14:16;16.32;69.07
13091;DHT22;6611;52.604;13.438;2023-03-13T14:19:26;16.12;69.66
13091;DHT22;6611;52.604;13.438;2023-03-13T14:24:28;16.29;69.77
13091;DHT22;6611;52.604;13.438;2023-03-13T14:29:31;16.28;69.19
13091;DHT22;6611;52.604;13.438;2023-03-13T14:34:33;16.23;69.19
13091;DHT22;6611;52.604;13.438;2023-03-13T14:39:36;16.15;69.44
13091;DHT22;6611;52.604;13.438;2023-03-13T14:44:40;16.15;69.26
13091;DHT22;6611;52.604;13.438;2023-03-13T14:49:45;16.36;69.00
13091;DHT22;6611;52.604;13.438;2023-03-13T14:54:52;16.47;69.26
13091;DHT22;6611;52.604;13.438;2023-03-13T15:00:30;16.50;68.87
13091;DHT22;6611;52.604;13.438;2023-03-13T15:05:33;16.68;68.28
13091;DHT22;6611;52.604;13.438;2023-03-13T15:10:35;16.61;68.47
13091;DHT22;6611;52.604;13.438;2023-03-13T15:15:39;16.59;68.29
13091;DHT22;6611;52.604;13.438;2023-03-13T15:20:40;16.59;68.16
13091;DHT22;6611;52.604;13.438;2023-03-13T15:25:42;16.32;69.19
13091;DHT22;6611;52.604;13.438;2023-03-13T15:30:47;16.12;70.02
13091;DHT22;6611;52.604;13.438;2023-03-13T15:35:49;16.05;69.42
13091;DHT22;6611;52.604;13.438;2023-03-13T15:40:51;15.94;70.06
13091;DHT22;6611;52.604;13.438;2023-03-13T15:45:54;15.71;70.53
13091;DHT22;6611;52.604;13.438;2023-03-13T15:50:59;15.71;69.85
13091;DHT22;6611;52.604;13.438;2023-03-13T15:56:02;15.66;70.66
13091;DHT22;6611;52.604;13.438;2023-03-13T16:01:09;15.61;70.40
13091;DHT22;6611;52.604;13.438;2023-03-13T16:06:15;15.54;70.89
13091;DHT22;6611;52.604;13.438;2023-03-13T16:11:17;15.46;71.54
13091;DHT22;6611;52.604;13.438;2023-03-13T16:16:22;15.56;70.99
13091;DHT22;6611;52.604;13.438;2023-03-13T16:21:26;15.42;71.86
13091;DHT22;6611;52.604;13.438;2023-03-13T16:26:29;15.49;71.28
13091;DHT22;6611;52.604;13.438;2023-03-13T16:31:33;15.46;71.69
13091;DHT22;6611;52.604;13.438;2023-03-13T16:36:35;15.29;72.95
13091;DHT22;6611;52.604;13.438;2023-03-13T16:41:37;15.15;73.50
13091;DHT22;6611;52.604;13.438;2023-03-13T16:46:41;15.07;73.66
13091;DHT22;6611;52.604;13.438;2023-03-13T16:51:43;15.07;74.25
13091;DHT22;6611;52.604;13.438;2023-03-13T16:56:46;14.98;74.27
13091;DHT22;6611;52.604;13.438;2023-03-13T17:01:49;14.94;74.69
13091;DHT22;6611;52.604;13.438;2023-03-13T17:06:51;14.91;75.00
13091;DHT22;6611;52.604;13.438;2023-03-13T17:11:53;14.92;74.71
13091;DHT22;6611;52.604;13.438;2023-03-13T17:16:56;14.83;74.83
13091;DHT22;6611;52.604;13.438;2023-03-13T17:21:57;14.90;74.70
13091;DHT22;6611;52.604;13.438;2023-03-13T17:26:59;14.77;75.19
13091;DHT22;6611;52.604;13.438;2023-03-13T17:32:02;14.64;75.57
13091;DHT22;6611;52.604;13.438;2023-03-13T17:37:12;14.52;76.23
13091;DHT22;6611;52.604;13.438;2023-03-13T17:42:14;14.53;75.84
13091;DHT22;6611;52.604;13.438;2023-03-13T17:47:20;14.46;76.09
13091;DHT22;6611;52.604;13.438;2023-03-13T17:52:22;14.42;76.17
13091;DHT22;6611;52.604;13.438;2023-03-13T17:57:25;14.32;76.41
13091;DHT22;6611;52.604;13.438;2023-03-13T18:02:28;14.30;76.39
13091;DHT22;6611;52.604;13.438;2023-03-13T18:07:30;14.38;76.10
13091;DHT22;6611;52.604;13.438;2023-03-13T18:12:31;14.29;76.47
13091;DHT22;6611;52.604;13.438;2023-03-13T18:17:35;14.22;76.82
13091;DHT22;6611;52.604;13.438;2023-03-13T18:22:36;14.22;76.78
13091;DHT22;6611;52.604;13.438;2023-03-13T18:27:38;14.21;76.70
13091;DHT22;6611;52.604;13.438;2023-03-13T18:32:42;14.19;76.86
13091;DHT22;6611;52.604;13.438;2023-03-13T18:37:45;14.28;76.44
13091;DHT22;6611;52.604;13.438;2023-03-13T18:42:47;14.28;76.57
13091;DHT22;6611;52.604;13.438;2023-03-13T18:47:50;14.33;76.26
13091;DHT22;6611;52.604;13.438;2023-03-13T18:52:53;14.28;76.59
13091;DHT22;6611;52.604;13.438;2023-03-13T18:57:55;14.29;76.49
13091;DHT22;6611;52.604;13.438;2023-03-13T19:02:58;14.26;76.68
13091;DHT22;6611;52.604;13.438;2023-03-13T19:08:00;14.22;76.73
13091;DHT22;6611;52.604;13.438;2023-03-13T19:13:01;14.18;76.91
13091;DHT22;6611;52.604;13.438;2023-03-13T19:18:05;14.17;76.96
13091;DHT22;6611;52.604;13.438;2023-03-13T19:23:08;14.15;77.17
13091;DHT22;6611;52.604;13.438;2023-03-13T19:28:10;14.15;76.89
13091;DHT22;6611;52.604;13.438;2023-03-13T19:33:13;14.15;77.01
13091;DHT22;6611;52.604;13.438;2023-03-13T19:38:15;14.12;77.00
13091;DHT22;6611;52.604;13.438;2023-03-13T19:43:16;14.10;76.96
13091;DHT22;6611;52.604;13.438;2023-03-13T19:48:20;13.98;77.33
13091;DHT22;6611;52.604;13.438;2023-03-13T19:53:21;13.98;77.44
13091;DHT22;6611;52.604;13.438;2023-03-13T19:58:23;14.00;77.28
13091;DHT22;6611;52.604;13.438;2023-03-13T20:03:26;13.87;77.97
13091;DHT22;6611;52.604;13.438;2023-03-13T20:08:28;13.88;77.85
13091;DHT22;6611;52.604;13.438;2023-03-13T20:13:30;13.80;77.96
13091;DHT22;6611;52.604;13.438;2023-03-13T20:18:33;13.69;78.46
13091;DHT22;6611;52.604;13.438;2023-03-13T20:23:35;13.67;78.52
13091;DHT22;6611;52.604;13.438;2023-03-13T20:28:38;13.71;78.34
13091;DHT22;6611;52.604;13.438;2023-03-13T20:33:41;13.71;78.42
13091;DHT22;6611;52.604;13.438;2023-03-13T20:38:43;13.60;78.89
13091;DHT22;6611;52.604;13.438;2023-03-13T20:43:45;13.63;78.79
13091;DHT22;6611;52.604;13.438;2023-03-13T20:48:48;13.62;78.77
13091;DHT22;6611;52.604;13.438;2023-03-13T20:53:49;13.62;78.87
13091;DHT22;6611;52.604;13.438;2023-03-13T20:58:51;13.56;79.02
13091;DHT22;6611;52.604;13.438;2023-03-13T21:03:54;13.56;78.98
13091;DHT22;6611;52.604;13.438;2023-03-13T21:08:56;13.58;78.74
13091;DHT22;6611;52.604;13.438;2023-03-13T21:13:57;13.53;78.87
13091;DHT22;6611;52.604;13.438;2023-03-13T21:19:00;13.50;78.72
13091;DHT22;6611;52.604;13.438;2023-03-13T21:24:02;13.55;78.64
13091;DHT22;6611;52.604;13.438;2023-03-13T21:29:09;13.59;78.15
13091;DHT22;6611;52.604;13.438;2023-03-13T21:34:12;13.58;77.86
13091;DHT22;6611;52.604;13.438;2023-03-13T21:39:14;13.60;77.54
13091;DHT22;6611;52.604;13.438;2023-03-13T21:44:15;13.71;76.63
13091;DHT22;6611;52.604;13.438;2023-03-13T21:49:20;13.62;76.78
13091;DHT22;6611;52.604;13.438;2023-03-13T21:54:22;13.71;76.14
13091;DHT22;6611;52.604;13.438;2023-03-13T21:59:24;13.65;76.14
13091;DHT22;6611;52.604;13.438;2023-03-13T22:04:28;13.63;76.06
13091;DHT22;6611;52.604;13.438;2023-03-13T22:09:30;13.67;75.81
13091;DHT22;6611;52.604;13.438;2023-03-13T22:14:32;13.62;75.88
13091;DHT22;6611;52.604;13.438;2023-03-13T22:19:35;13.55;76.06
13091;DHT22;6611;52.604;13.438;2023-03-13T22:24:37;13.56;75.81
13091;DHT22;6611;52.604;13.438;2023-03-13T22:29:39;13.53;75.87
13091;DHT22;6611;52.604;13.438;2023-03-13T22:34:42;13.46;76.19
13091;DHT22;6611;52.604;13.438;2023-03-13T22:39:46;13.46;76.02
13091;DHT22;6611;52.604;13.438;2023-03-13T22:44:49;13.42;76.14
13091;DHT22;6611;52.604;13.438;2023-03-13T22:49:52;13.45;75.97
13091;DHT22;6611;52.604;13.438;2023-03-13T22:54:54;13.39;76.08
13091;DHT22;6611;52.604;13.438;2023-03-13T22:59:56;13.38;76.12
13091;DHT22;6611;52.604;13.438;2023-03-13T23:04:59;13.28;76.39
13091;DHT22;6611;52.604;13.438;2023-03-13T23:10:01;13.31;76.24
13091;DHT22;6611;52.604;13.438;2023-03-13T23:15:04;13.26;76.19
13091;DHT22;6611;52.604;13.438;2023-03-13T23:20:09;13.28;76.23
13091;DHT22;6611;52.604;13.438;2023-03-13T23:25:12;13.22;76.35
13091;DHT22;6611;52.604;13.438;2023-03-13T23:30:15;13.15;76.75
13091;DHT22;6611;52.604;13.438;2023-03-13T23:35:19;12.93;77.13
13091;DHT22;6611;52.604;13.438;2023-03-13T23:40:22;12.91;77.25
13091;DHT22;6611;52.604;13.438;2023-03-13T23:45:24;12.77;77.61
13091;DHT22;6611;52.604;13.438;2023-03-13T23:50:27;12.80;77.07
13091;DHT22;6611;52.604;13.438;2023-03-13T23:55:29;12.77;76.93
